Terminal Aerodrome Forecast
Issued by NWS

Home | Current Version | Previous Version | Text Only | Print | Product List | Glossary On
Versions: 1 2 3 4 5 6 7 8 9 10 11 12 13 14 15 16
711
FTUS45 KTFX 091132
TAFHVR
TAF
KHVR 091132Z 0912/1012 06006KT P6SM OVC035
     FM100000 09008KT P6SM OVC045 PROB30 1000/1006 4SM -SN OVC025
     FM100600 08008KT 4SM -SN OVC030=

USA.gov is the U.S. government's official web portal to all federal, state and local government web resources and services.